National Weather Service United States Department of Commerce

Airport Observations and Forecasts (from NWS CLE)

Cleveland Hopkins International Airport

 

FAA details


000
FTUS41 KCLE 192038 AAA
TAFCLE
TAF AMD
KCLE 192038Z 1921/2024 24008KT P6SM SCT250=

24 hours of observations

7-day forecast

Hourly - Tabular forecast  Hourly - Graph forecast

Terminal Information Board

Toledo Express Airport

 

FAA details


000
FTUS41 KCLE 191720
TAFTOL
TAF
KTOL 191720Z 1918/2018 25011KT P6SM FEW250
FM200000 23006KT P6SM SCT250=

24 hours of observations

7-day forecast

Hourly - Tabular forecast  Hourly - Graph forecast

Terminal Information Board

Findlay Airport

 

FAA details


000
FTUS41 KCLE 191720
TAFFDY
TAF
KFDY 191720Z 1918/2018 25011KT P6SM FEW250
FM192300 23007KT P6SM FEW250=

24 hours of observations

7-day forecast

Hourly - Tabular forecast   Hourly - Graph forecast

Terminal Information Board

Mansfield Lahm Airport

 

FAA details


000
FTUS41 KCLE 191720
TAFMFD
TAF
KMFD 191720Z 1918/2018 26010KT P6SM SKC=

24 hours of observations

7-day forecast

Hourly - Tabular forecast   Hourly - Graph forecast

Terminal Information Board

Akron-Canton Airport

 

FAA details


000
FTUS41 KCLE 191720
TAFCAK
TAF
KCAK 191720Z 1918/2018 27010KT P6SM SKC
FM192300 24006KT P6SM FEW250=

24 hours of observations

7-day forecast

Hourly - Tabular forecast   Hourly - Graph forecast

Terminal Information Board

Youngstown-Warren Regional Airport

 

FAA details


000
FTUS41 KCLE 192039 AAA
TAFYNG
TAF AMD
KYNG 192039Z 1921/2018 28008KT P6SM SCT250=

24 hours of observations

7-day forecast

Hourly - Tabular forecast   Hourly - Graph forecast

Terminal Information Board

Erie International Airport

 

FAA details


000
FTUS41 KCLE 192039 AAA
TAFERI
TAF AMD
KERI 192039Z 1921/2018 25009KT P6SM FEW250=

24 hours of observations

7-day forecast

Hourly - Tabular Forecast  Hourly - Graph forecast

Terminal Information Board

The National Weather Service is Cleveland is responsible for the Terminal Areodome Forecasts for seven area airports in northern Ohio and northwest Pennsylvania.  Routine issuance times are by 00Z, 06Z, 12Z, and 18Z with amendments, as needed.

Latest Surface Analysis

Additional Current Conditions

Satellite

Radar
 
 

 

Center Weather Service Unit, Oberlin/ZOB

CWA/MIS    

 

The National Weather Service Center Weather Service Unit in Oberlin is responsible for the airspace above northern Ohio and northwest Pennsylvania and ajoining areas.

 

Aviaiton Weather Center National, AWC

AIRMETS & SIGMETS